Time;durP1;ratioP1;P1;durP2;ratioP2;P2;SDS_P1;SDS_P2;PMS_P1;PMS_P2;Temp;Humidity;BMP_temperature;BMP_pressure;BME280_temperature;BME280_humidity;BME280_pressure;Samples;Min_cycle;Max_cycle;Signal;HPM_P1;HPM_P2
2022/10/11 00:01:14;;;;;;;10.90;4.63;;;23.70;55.80;;;;;;5032721;28;20041;-69
2022/10/11 00:03:40;;;;;;;7.70;4.05;;;23.60;55.70;;;;;;5032281;28;20091;-69
2022/10/11 00:06:07;;;;;;;7.93;4.72;;;23.60;55.90;;;;;;5032300;28;20091;-69
2022/10/11 00:08:34;;;;;;;5.88;4.00;;;23.70;55.90;;;;;;5032174;28;20076;-69
2022/10/11 00:11:03;;;;;;;7.13;3.85;;;23.70;55.70;;;;;;5031724;28;20064;-69
2022/10/11 00:13:33;;;;;;;6.57;4.03;;;23.70;55.50;;;;;;5032362;28;20040;-70
2022/10/11 00:15:59;;;;;;;7.85;4.35;;;23.80;55.50;;;;;;5032147;28;20037;-69
2022/10/11 00:18:25;;;;;;;6.45;4.43;;;23.90;55.50;;;;;;5032115;28;20048;-69
2022/10/11 00:21:03;;;;;;;7.18;4.78;;;23.80;55.30;;;;;;5031983;28;20037;-69
2022/10/11 00:23:30;;;;;;;5.43;4.00;;;23.80;55.30;;;;;;5032050;28;20072;-69
2022/10/11 00:26:00;;;;;;;8.40;4.82;;;23.80;55.20;;;;;;5030579;28;20029;-69
2022/10/11 00:28:27;;;;;;;6.53;4.28;;;23.80;55.30;;;;;;5031938;28;20076;-70
2022/10/11 00:30:53;;;;;;;11.80;4.53;;;23.70;55.40;;;;;;5031734;28;20041;-69
2022/10/11 00:33:19;;;;;;;7.65;4.75;;;23.60;55.40;;;;;;5031626;28;20065;-69
2022/10/11 00:35:45;;;;;;;9.23;4.55;;;23.60;55.50;;;;;;5030465;28;20107;-67
2022/10/11 00:38:11;;;;;;;7.97;4.47;;;23.70;55.60;;;;;;5031154;28;20537;-69
2022/10/11 00:40:37;;;;;;;9.30;4.75;;;23.70;55.70;;;;;;5031439;28;20042;-68
2022/10/11 00:43:03;;;;;;;7.93;4.18;;;23.70;55.70;;;;;;5031149;28;20068;-69
2022/10/11 00:45:29;;;;;;;7.07;4.10;;;23.60;55.60;;;;;;5029760;28;20041;-69
2022/10/11 00:48:01;;;;;;;8.05;4.05;;;23.60;55.60;;;;;;5030523;28;20052;-69
2022/10/11 00:50:31;;;;;;;7.53;4.88;;;23.50;55.80;;;;;;5030971;28;20041;-69
2022/10/11 00:53:01;;;;;;;7.30;3.88;;;23.50;55.90;;;;;;5030690;28;20292;-69
2022/10/11 00:55:33;;;;;;;4.97;3.58;;;23.50;55.90;;;;;;5028983;28;20545;-69
2022/10/11 00:57:59;;;;;;;5.80;4.10;;;23.60;55.80;;;;;;5030153;28;20034;-69
2022/10/11 01:00:26;;;;;;;7.40;3.75;;;23.50;55.70;;;;;;5029606;28;20090;-69
2022/10/11 01:02:52;;;;;;;6.88;3.67;;;23.50;55.80;;;;;;5010735;28;20041;-69
2022/10/11 01:05:18;;;;;;;4.63;3.33;;;23.70;55.90;;;;;;5010340;28;20050;-68
2022/10/11 01:07:46;;;;;;;7.90;4.00;;;23.70;55.70;;;;;;5010430;28;20087;-69
2022/10/11 01:10:13;;;;;;;6.22;4.22;;;23.70;55.60;;;;;;4975829;28;20250;-70
2022/10/11 01:13:02;;;;;;;15.20;7.30;;;23.60;55.30;;;;;;4975990;28;20077;-69
2022/10/11 01:15:39;;;;;;;15.38;7.88;;;23.70;55.50;;;;;;4952609;28;20431;-68
2022/10/11 01:18:13;;;;;;;13.48;6.78;;;23.70;55.60;;;;;;4936542;28;20046;-68
2022/10/11 01:20:42;;;;;;;13.45;5.97;;;23.50;55.50;;;;;;4969159;28;20050;-69
2022/10/11 01:23:18;;;;;;;6.03;4.40;;;23.50;55.40;;;;;;4967779;28;20047;-68
2022/10/11 01:26:27;;;;;;;6.43;4.00;;;23.50;55.50;;;;;;4969306;28;20121;-69
2022/10/11 01:29:14;;;;;;;6.47;4.15;;;23.70;55.50;;;;;;4969489;28;20440;-69
2022/10/11 01:31:46;;;;;;;8.50;4.53;;;23.60;55.40;;;;;;4969544;28;20038;-69
2022/10/11 01:34:24;;;;;;;8.57;4.10;;;23.50;55.40;;;;;;4969506;28;20038;-69
2022/10/11 01:37:25;;;;;;;5.90;4.13;;;23.60;55.60;;;;;;4969114;28;20085;-69
2022/10/11 01:40:06;;;;;;;5.07;4.07;;;23.60;55.60;;;;;;4930636;29;20082;-69
2022/10/11 01:42:36;;;;;;;6.32;3.78;;;23.50;55.60;;;;;;4930993;29;20031;-69
2022/10/11 01:45:04;;;;;;;8.35;3.90;;;23.60;55.60;;;;;;4930441;29;20628;-69
2022/10/11 01:47:30;;;;;;;7.95;4.18;;;23.50;55.70;;;;;;4930853;29;20047;-68
2022/10/11 01:49:59;;;;;;;9.90;4.40;;;23.50;55.70;;;;;;4931064;29;20504;-69
2022/10/11 01:52:29;;;;;;;5.47;4.10;;;23.60;55.60;;;;;;4959421;28;20046;-69
2022/10/11 01:55:22;;;;;;;5.35;3.53;;;23.60;55.40;;;;;;4992057;28;20053;-69
2022/10/11 01:57:51;;;;;;;5.32;3.85;;;23.70;55.30;;;;;;4988795;28;20070;-69
2022/10/11 02:00:23;;;;;;;7.90;5.00;;;23.70;55.30;;;;;;5007181;28;20097;-69
2022/10/11 02:03:12;;;;;;;10.68;4.55;;;23.70;55.20;;;;;;5007841;28;20037;-69
2022/10/11 02:05:59;;;;;;;5.93;4.18;;;23.70;55.40;;;;;;5007365;28;20135;-69
2022/10/11 02:08:46;;;;;;;5.85;3.72;;;23.50;55.40;;;;;;5007969;28;20034;-68
2022/10/11 02:11:17;;;;;;;6.93;3.75;;;23.50;55.50;;;;;;5018071;28;20072;-68
2022/10/11 02:13:55;;;;;;;8.70;4.10;;;23.50;55.40;;;;;;5011765;28;20096;-69
2022/10/11 02:16:31;;;;;;;10.23;5.00;;;23.60;55.30;;;;;;5030324;28;20093;-67
2022/10/11 02:19:02;;;;;;;7.85;4.40;;;23.40;55.30;;;;;;5030646;28;20037;-67
2022/10/11 02:21:32;;;;;;;7.43;4.47;;;23.50;55.60;;;;;;5030562;28;20034;-69
2022/10/11 02:24:09;;;;;;;6.30;3.78;;;23.50;55.60;;;;;;5030364;28;20045;-69
2022/10/11 02:26:41;;;;;;;5.43;3.90;;;23.60;55.60;;;;;;5030356;28;20057;-69
2022/10/11 02:29:11;;;;;;;4.97;3.83;;;23.40;55.40;;;;;;5011624;28;20064;-68
2022/10/11 02:31:38;;;;;;;7.88;4.05;;;23.40;55.30;;;;;;5030453;28;20298;-69
2022/10/11 02:34:18;;;;;;;6.32;3.95;;;23.50;55.30;;;;;;5031496;28;20045;-69
2022/10/11 02:37:06;;;;;;;6.32;3.67;;;23.40;55.20;;;;;;4982426;28;20398;-69
2022/10/11 02:39:41;;;;;;;6.85;4.35;;;23.50;55.40;;;;;;5033138;28;20041;-69
2022/10/11 02:42:13;;;;;;;6.60;4.13;;;23.50;55.30;;;;;;5034063;28;20391;-69
2022/10/11 02:44:43;;;;;;;9.40;4.28;;;23.50;55.00;;;;;;5032688;28;20390;-69
2022/10/11 02:47:10;;;;;;;9.18;4.78;;;23.40;55.30;;;;;;5033688;28;20340;-69
2022/10/11 02:49:37;;;;;;;9.00;4.95;;;23.30;55.80;;;;;;5033183;28;20041;-69
2022/10/11 02:52:05;;;;;;;8.10;4.45;;;23.20;56.20;;;;;;5030653;28;20033;-68
2022/10/11 02:54:31;;;;;;;7.90;4.28;;;23.10;56.50;;;;;;5033371;28;20395;-69
2022/10/11 02:56:57;;;;;;;8.50;4.45;;;23.00;56.80;;;;;;4998116;28;20046;-67
2022/10/11 02:59:23;;;;;;;9.23;5.20;;;22.90;57.00;;;;;;5014516;28;20046;-67
2022/10/11 03:01:49;;;;;;;8.13;4.72;;;22.90;57.20;;;;;;5014608;28;20056;-68
2022/10/11 03:04:15;;;;;;;10.63;5.32;;;22.80;57.20;;;;;;5033480;28;20041;-69
2022/10/11 03:06:41;;;;;;;10.15;5.03;;;22.80;57.30;;;;;;5033420;28;20135;-69
2022/10/11 03:09:08;;;;;;;7.57;4.70;;;22.80;57.40;;;;;;5033410;28;20494;-68
2022/10/11 03:11:34;;;;;;;13.82;5.15;;;22.70;57.50;;;;;;4998284;28;20425;-69
2022/10/11 03:14:00;;;;;;;8.90;5.18;;;22.60;57.40;;;;;;5033341;28;20045;-69
2022/10/11 03:16:26;;;;;;;10.60;5.90;;;22.60;57.50;;;;;;5033190;28;20037;-69
2022/10/11 03:18:52;;;;;;;13.88;5.85;;;22.60;57.50;;;;;;5032125;28;20107;-67
2022/10/11 03:21:18;;;;;;;13.73;6.72;;;22.50;57.60;;;;;;5014609;28;20041;-69
2022/10/11 03:23:44;;;;;;;15.55;7.43;;;22.50;57.60;;;;;;5033377;28;20088;-69
2022/10/11 03:26:10;;;;;;;12.02;7.30;;;22.60;57.60;;;;;;5031761;28;20136;-69
2022/10/11 03:28:36;;;;;;;11.43;7.07;;;22.50;57.60;;;;;;5033144;28;20558;-69
2022/10/11 03:31:02;;;;;;;13.38;6.45;;;22.40;57.60;;;;;;5033116;28;20037;-69
2022/10/11 03:33:28;;;;;;;12.13;7.10;;;22.30;57.60;;;;;;5033367;28;20060;-69
2022/10/11 03:35:54;;;;;;;12.50;5.32;;;22.60;57.60;;;;;;5013698;28;20088;-69
2022/10/11 03:38:22;;;;;;;13.52;6.28;;;22.40;57.30;;;;;;5031955;28;20042;-69
2022/10/11 03:40:48;;;;;;;10.40;6.60;;;22.60;57.10;;;;;;5014078;28;20072;-68
2022/10/11 03:43:14;;;;;;;13.05;6.07;;;22.60;56.90;;;;;;5032923;28;20034;-69
2022/10/11 03:45:43;;;;;;;12.00;7.47;;;22.60;56.80;;;;;;5032234;28;20115;-69
2022/10/11 03:48:10;;;;;;;11.27;6.47;;;22.70;56.70;;;;;;5031278;28;20026;-69
2022/10/11 03:50:37;;;;;;;13.77;7.03;;;22.70;56.70;;;;;;5030273;28;20141;-69
2022/10/11 03:53:04;;;;;;;12.35;5.88;;;22.70;56.80;;;;;;5032705;28;20037;-69
2022/10/11 03:55:30;;;;;;;13.40;6.80;;;22.70;57.20;;;;;;5032580;28;20508;-70
2022/10/11 03:57:56;;;;;;;10.45;6.05;;;23.00;56.60;;;;;;5013727;28;20049;-71
2022/10/11 04:00:23;;;;;;;11.05;5.97;;;23.10;56.00;;;;;;5032595;28;20057;-70
2022/10/11 04:02:49;;;;;;;13.70;6.15;;;23.20;55.40;;;;;;5032342;28;20459;-71
2022/10/11 04:05:15;;;;;;;12.88;6.70;;;23.30;55.10;;;;;;5032129;28;20067;-70
2022/10/11 04:07:41;;;;;;;12.68;6.53;;;23.30;54.80;;;;;;5031598;28;20038;-69
2022/10/11 04:10:08;;;;;;;11.48;6.82;;;23.40;54.40;;;;;;5031269;28;20473;-69
2022/10/11 04:12:37;;;;;;;12.85;6.18;;;23.60;57.10;;;;;;5031377;28;20026;-69
2022/10/11 04:15:05;;;;;;;14.70;6.60;;;23.80;59.30;;;;;;5030316;28;20112;-69
2022/10/11 04:17:31;;;;;;;10.50;6.10;;;24.10;59.70;;;;;;5031333;28;20037;-71
2022/10/11 04:19:57;;;;;;;15.18;6.47;;;24.20;56.10;;;;;;5031934;28;20044;-70
2022/10/11 04:22:24;;;;;;;11.82;7.13;;;24.10;53.40;;;;;;5030736;28;20512;-69
2022/10/11 04:24:50;;;;;;;9.85;5.90;;;24.10;52.00;;;;;;5031546;28;20475;-70
2022/10/11 04:27:16;;;;;;;11.90;6.25;;;24.10;50.90;;;;;;5029730;28;20537;-68
2022/10/11 04:29:43;;;;;;;12.50;6.93;;;24.10;49.80;;;;;;5031337;28;20044;-71
2022/10/11 04:32:09;;;;;;;11.10;6.38;;;24.10;48.90;;;;;;5031320;28;20095;-72
2022/10/11 04:34:35;;;;;;;19.42;9.10;;;24.00;48.00;;;;;;5012745;28;20171;-70
2022/10/11 04:37:01;;;;;;;13.68;7.55;;;24.10;47.40;;;;;;5012352;28;20183;-70
2022/10/11 04:39:27;;;;;;;2.00;1.60;;;24.00;46.60;;;;;;5031776;28;20053;-74
2022/10/11 04:41:53;;;;;;;10.70;6.40;;;24.10;46.80;;;;;;5032083;28;20045;-69
2022/10/11 04:44:19;;;;;;;9.20;6.25;;;24.00;43.90;;;;;;5031834;28;20044;-71
2022/10/11 04:46:45;;;;;;;15.10;7.15;;;24.00;43.20;;;;;;5030864;28;20044;-69
2022/10/11 04:49:11;;;;;;;11.95;6.32;;;24.00;44.40;;;;;;5030764;28;20038;-70
2022/10/11 04:51:37;;;;;;;12.40;7.32;;;24.00;44.10;;;;;;5031522;28;20036;-69
2022/10/11 04:54:03;;;;;;;12.85;6.40;;;23.90;45.20;;;;;;5030432;28;20141;-70
2022/10/11 04:56:29;;;;;;;7.68;4.95;;;24.00;46.20;;;;;;4995943;28;20049;-72
2022/10/11 04:58:55;;;;;;;9.77;5.03;;;24.00;46.40;;;;;;4996195;28;20041;-70
2022/10/11 05:01:22;;;;;;;8.75;5.70;;;24.00;47.10;;;;;;5031460;28;20029;-71
2022/10/11 05:03:48;;;;;;;14.13;7.10;;;24.10;46.50;;;;;;5031353;28;20042;-71
2022/10/11 05:06:14;;;;;;;20.90;7.05;;;24.00;46.90;;;;;;5031571;28;20084;-70
2022/10/11 05:08:40;;;;;;;10.40;6.80;;;24.00;50.00;;;;;;5031384;28;20044;-70
2022/10/11 05:11:10;;;;;;;10.88;6.38;;;24.10;53.00;;;;;;5031827;28;20029;-69
2022/10/11 05:13:37;;;;;;;13.10;7.07;;;24.20;50.10;;;;;;5029913;28;20041;-70
2022/10/11 05:16:04;;;;;;;13.35;6.65;;;24.10;56.10;;;;;;5031156;28;20037;-68
2022/10/11 05:18:30;;;;;;;9.70;5.88;;;24.20;51.70;;;;;;5031222;28;20080;-70
2022/10/11 05:21:13;;;;;;;14.70;6.93;;;24.30;52.80;;;;;;5012432;28;20120;-70
2022/10/11 05:23:39;;;;;;;10.63;7.20;;;24.40;56.40;;;;;;5031003;28;20037;-69
2022/10/11 05:26:05;;;;;;;12.57;7.18;;;24.40;59.50;;;;;;5029882;28;20525;-72
2022/10/11 05:28:32;;;;;;;14.75;7.25;;;24.40;55.50;;;;;;5031201;28;20120;-71
2022/10/11 05:30:58;;;;;;;11.50;6.25;;;24.40;54.40;;;;;;5031048;28;20037;-70
2022/10/11 05:33:24;;;;;;;11.68;7.10;;;24.30;54.30;;;;;;5031114;28;20041;-70
2022/10/11 05:35:51;;;;;;;13.68;7.07;;;24.40;54.10;;;;;;5011944;28;20049;-71
2022/10/11 05:38:17;;;;;;;15.75;7.32;;;24.30;54.00;;;;;;5030938;28;20033;-71
2022/10/11 05:40:43;;;;;;;12.73;6.90;;;24.40;53.80;;;;;;5030734;28;20106;-72
2022/10/11 05:43:09;;;;;;;17.85;7.35;;;24.40;53.10;;;;;;5029584;28;20095;-70
2022/10/11 05:45:37;;;;;;;9.98;6.78;;;24.30;53.00;;;;;;5029402;28;20033;-71
2022/10/11 05:48:04;;;;;;;20.05;7.45;;;24.50;53.30;;;;;;5010211;28;20038;-70
2022/10/11 05:50:31;;;;;;;13.77;8.27;;;24.60;53.20;;;;;;5029349;28;20029;-70
2022/10/11 05:52:57;;;;;;;16.25;7.70;;;24.50;53.10;;;;;;5030818;28;20048;-70
2022/10/11 05:55:23;;;;;;;17.67;8.65;;;24.50;52.60;;;;;;5030922;28;20115;-70
2022/10/11 05:57:54;;;;;;;18.05;8.60;;;24.40;52.50;;;;;;5030677;28;20040;-71
2022/10/11 06:00:20;;;;;;;17.92;8.98;;;24.20;52.80;;;;;;5031091;28;20435;-70
2022/10/11 06:02:46;;;;;;;17.90;7.88;;;24.20;53.10;;;;;;5031007;28;20108;-70
2022/10/11 06:05:13;;;;;;;19.65;8.15;;;24.10;53.40;;;;;;5031066;28;20115;-71
2022/10/11 06:07:39;;;;;;;18.60;8.23;;;24.10;53.60;;;;;;5030782;28;20037;-72
2022/10/11 06:10:05;;;;;;;21.48;8.05;;;23.90;53.80;;;;;;5033657;28;20428;-70
2022/10/11 06:12:32;;;;;;;20.73;8.70;;;23.80;54.30;;;;;;5033745;28;20033;-71
2022/10/11 06:14:58;;;;;;;23.85;9.07;;;23.80;54.50;;;;;;5034716;28;20491;-70
2022/10/11 06:17:24;;;;;;;22.15;8.75;;;23.70;54.90;;;;;;5034464;28;20401;-68
2022/10/11 06:19:50;;;;;;;18.65;9.20;;;23.70;55.30;;;;;;5034707;28;20037;-68
2022/10/11 06:22:17;;;;;;;20.67;9.38;;;23.70;56.10;;;;;;5034966;28;20589;-69
2022/10/11 06:24:43;;;;;;;21.48;9.98;;;23.50;56.20;;;;;;5035157;28;20033;-71
2022/10/11 06:27:09;;;;;;;19.90;9.10;;;23.50;56.20;;;;;;5034684;28;20036;-73
2022/10/11 06:29:36;;;;;;;16.73;8.05;;;23.60;56.10;;;;;;5034788;28;20513;-72
2022/10/11 06:32:02;;;;;;;26.73;8.48;;;23.50;56.10;;;;;;5015545;28;20045;-68
2022/10/11 06:34:28;;;;;;;15.73;7.82;;;23.60;56.20;;;;;;5032272;28;20042;-71
2022/10/11 06:36:54;;;;;;;16.40;7.72;;;23.60;56.50;;;;;;5028965;28;20057;-72
2022/10/11 06:39:20;;;;;;;11.32;7.38;;;23.50;56.70;;;;;;5028250;28;20081;-69
2022/10/11 06:41:46;;;;;;;9.15;6.82;;;23.50;56.90;;;;;;5026861;28;20132;-70
2022/10/11 06:44:13;;;;;;;13.90;7.05;;;23.60;57.10;;;;;;5029040;28;20072;-69
2022/10/11 06:46:40;;;;;;;13.55;6.38;;;23.50;57.10;;;;;;4976475;28;20045;-70
2022/10/11 06:49:06;;;;;;;10.35;4.65;;;23.60;57.30;;;;;;4976427;28;20054;-71
2022/10/11 06:51:34;;;;;;;14.15;6.20;;;23.60;57.50;;;;;;5008589;28;20042;-72
2022/10/11 06:54:01;;;;;;;11.25;5.47;;;23.50;57.30;;;;;;5007940;28;20045;-73
2022/10/11 06:56:29;;;;;;;9.05;4.93;;;23.70;57.50;;;;;;5011381;28;20150;-73
2022/10/11 06:58:57;;;;;;;10.32;5.07;;;23.60;57.80;;;;;;5028602;28;20041;-71
2022/10/11 07:01:24;;;;;;;9.15;5.38;;;23.50;57.80;;;;;;5028909;28;20721;-70
2022/10/11 07:03:52;;;;;;;7.95;4.57;;;23.50;57.80;;;;;;5025592;28;20049;-69
2022/10/11 07:06:22;;;;;;;10.13;4.35;;;23.50;57.90;;;;;;5031364;28;20062;-70
2022/10/11 07:08:48;;;;;;;7.25;4.72;;;23.50;57.90;;;;;;5031422;28;20048;-69
2022/10/11 07:11:20;;;;;;;13.57;5.78;;;23.80;57.40;;;;;;5031720;28;20091;-69
2022/10/11 07:13:54;;;;;;;13.07;5.93;;;23.80;57.00;;;;;;5034042;28;20029;-69
2022/10/11 07:16:21;;;;;;;11.40;5.13;;;23.80;56.50;;;;;;5034272;28;20041;-70
2022/10/11 07:18:51;;;;;;;8.95;6.18;;;24.00;56.50;;;;;;5032717;28;20041;-69
2022/10/11 07:21:18;;;;;;;10.60;5.45;;;24.00;56.30;;;;;;5031476;28;20037;-70
2022/10/11 07:23:44;;;;;;;12.48;4.95;;;24.00;56.50;;;;;;5032831;28;20034;-67
2022/10/11 07:26:11;;;;;;;14.15;5.75;;;24.00;56.30;;;;;;5032400;28;20107;-70
2022/10/11 07:28:38;;;;;;;9.70;4.63;;;24.20;56.30;;;;;;5032282;28;20056;-68
2022/10/11 07:31:06;;;;;;;9.73;5.20;;;24.00;56.10;;;;;;5032460;28;20034;-69
2022/10/11 07:33:33;;;;;;;8.82;4.10;;;24.10;56.20;;;;;;5032915;28;20367;-71
2022/10/11 07:35:59;;;;;;;9.50;5.15;;;24.10;56.20;;;;;;5033247;28;20049;-71
2022/10/11 07:38:26;;;;;;;8.18;4.25;;;24.10;56.50;;;;;;5031839;28;20026;-67
2022/10/11 07:40:52;;;;;;;3.72;2.45;;;24.30;58.20;;;;;;5011065;28;20046;-70
2022/10/11 07:43:18;;;;;;;1.17;1.13;;;24.50;57.60;;;;;;5013957;28;20148;-68
2022/10/11 07:45:47;;;;;;;0.63;0.63;;;24.70;56.10;;;;;;5029858;28;20033;-70
2022/10/11 07:48:14;;;;;;;2.17;1.38;;;24.90;55.50;;;;;;5032194;28;20091;-74
2022/10/11 07:50:40;;;;;;;7.53;4.25;;;24.90;55.80;;;;;;5032644;28;20404;-74
2022/10/11 07:53:07;;;;;;;14.48;4.28;;;25.00;52.10;;;;;;5033242;28;20061;-75
2022/10/11 07:55:41;;;;;;;17.38;4.55;;;24.80;51.70;;;;;;5032595;28;20140;-73
2022/10/11 07:58:11;;;;;;;12.27;5.32;;;24.80;50.70;;;;;;5031644;28;20044;-70
2022/10/11 08:00:41;;;;;;;10.63;4.95;;;24.80;50.60;;;;;;5013944;28;20498;-71
2022/10/11 08:03:09;;;;;;;14.65;5.75;;;24.80;50.10;;;;;;5031330;28;20082;-70
2022/10/11 08:05:37;;;;;;;11.88;4.40;;;24.80;50.10;;;;;;5030904;28;20063;-69
2022/10/11 08:08:04;;;;;;;10.82;4.43;;;24.80;51.60;;;;;;5032533;28;20056;-67
2022/10/11 08:10:55;;;;;;;9.43;4.53;;;24.80;51.30;;;;;;5032734;28;20073;-71
2022/10/11 08:13:21;;;;;;;7.63;4.13;;;24.70;51.60;;;;;;5010017;28;20065;-69
2022/10/11 08:15:47;;;;;;;9.05;4.75;;;24.80;51.90;;;;;;5010170;28;20053;-69
2022/10/11 08:18:14;;;;;;;8.07;4.35;;;24.70;52.00;;;;;;5009853;28;20042;-71
2022/10/11 08:20:40;;;;;;;8.43;4.80;;;24.70;52.10;;;;;;5010378;28;20517;-73
2022/10/11 08:23:06;;;;;;;10.95;4.40;;;24.80;52.20;;;;;;5009914;28;20049;-69
2022/10/11 08:25:41;;;;;;;10.82;4.90;;;24.80;52.30;;;;;;5009805;28;20049;-68
2022/10/11 08:28:08;;;;;;;11.70;4.78;;;24.70;52.40;;;;;;5009939;28;20053;-68
2022/10/11 08:30:35;;;;;;;9.63;4.10;;;24.80;53.00;;;;;;5009871;28;20049;-67
2022/10/11 08:33:01;;;;;;;10.50;4.30;;;24.70;53.10;;;;;;5008682;28;20497;-66
2022/10/11 08:35:27;;;;;;;6.90;4.05;;;24.80;53.30;;;;;;5008046;28;20034;-65
2022/10/11 08:37:53;;;;;;;8.43;4.15;;;24.70;53.30;;;;;;4987496;28;20072;-65
2022/10/11 08:40:21;;;;;;;7.88;3.83;;;24.80;53.20;;;;;;5009372;28;20120;-64
2022/10/11 08:42:56;;;;;;;8.70;4.10;;;24.70;53.50;;;;;;5008997;28;20038;-64
2022/10/11 08:45:28;;;;;;;9.55;3.83;;;24.70;53.40;;;;;;5029244;28;20033;-64
2022/10/11 08:48:14;;;;;;;8.90;4.87;;;24.60;53.10;;;;;;5030990;28;20091;-65
2022/10/11 08:50:45;;;;;;;12.10;4.40;;;24.60;53.60;;;;;;5031326;28;20091;-66
2022/10/11 08:53:21;;;;;;;8.82;2.45;;;24.60;54.00;;;;;;5030546;28;20069;-68
2022/10/11 08:55:51;;;;;;;1.55;1.38;;;24.70;55.80;;;;;;5030190;28;20539;-66
2022/10/11 08:59:00;;;;;;;11.07;4.00;;;24.80;55.50;;;;;;5031044;28;20034;-65
2022/10/11 09:01:28;;;;;;;6.22;3.72;;;24.90;54.20;;;;;;5031241;28;20045;-66
2022/10/11 09:03:54;;;;;;;6.75;3.72;;;25.00;52.60;;;;;;5031110;28;20484;-66
2022/10/11 09:06:26;;;;;;;12.40;4.22;;;24.90;52.20;;;;;;5031844;28;20053;-65
2022/10/11 09:09:10;;;;;;;11.95;4.65;;;24.90;52.10;;;;;;5031650;28;20099;-66
2022/10/11 09:11:54;;;;;;;7.82;3.53;;;24.90;52.10;;;;;;5029509;28;20037;-67
2022/10/11 09:15:13;;;;;;;6.05;3.17;;;24.90;53.00;;;;;;5031021;28;20056;-66
2022/10/11 09:17:51;;;;;;;7.72;4.05;;;24.90;53.20;;;;;;5031080;28;20033;-68
2022/10/11 09:20:54;;;;;;;7.32;3.60;;;24.90;52.10;;;;;;5030685;28;20458;-68
2022/10/11 09:23:20;;;;;;;;;;;25.00;54.10;;;;;;5031597;28;20021;-68
2022/10/11 09:26:18;;;;;;;7.72;3.33;;;25.30;54.10;;;;;;5030363;28;19932;-68
2022/10/11 09:29:03;;;;;;;8.05;3.90;;;25.70;54.00;;;;;;4965717;28;20053;-68
2022/10/11 09:31:30;;;;;;;6.35;3.05;;;26.00;49.70;;;;;;4969281;28;20038;-68
2022/10/11 09:34:04;;;;;;;9.43;3.58;;;25.90;46.50;;;;;;4968880;28;20050;-70
2022/10/11 09:36:57;;;;;;;5.38;2.75;;;25.70;44.50;;;;;;4969040;28;20460;-67
2022/10/11 09:39:40;;;;;;;4.95;2.88;;;25.60;48.10;;;;;;4969948;28;20093;-68
2022/10/11 09:42:09;;;;;;;14.55;3.20;;;25.80;49.40;;;;;;4969811;28;20030;-67
2022/10/11 09:44:44;;;;;;;8.90;3.05;;;26.00;53.80;;;;;;4968828;28;20472;-63
2022/10/11 09:47:23;;;;;;;5.95;3.40;;;25.90;46.30;;;;;;4969837;28;20054;-68
2022/10/11 09:50:14;;;;;;;10.48;3.53;;;25.90;44.30;;;;;;4969583;28;20122;-65
2022/10/11 09:52:55;;;;;;;9.25;3.28;;;25.60;41.60;;;;;;4969786;28;20038;-64
2022/10/11 09:55:39;;;;;;;6.35;3.58;;;25.60;41.40;;;;;;4960411;28;20050;-65
2022/10/11 09:58:25;;;;;;;8.93;3.33;;;25.80;51.50;;;;;;4950205;28;20078;-66
2022/10/11 10:01:10;;;;;;;5.32;2.42;;;26.40;54.00;;;;;;4958088;28;20049;-64
2022/10/11 10:03:38;;;;;;;6.45;3.20;;;26.80;51.40;;;;;;4969253;28;20098;-65
2022/10/11 10:06:22;;;;;;;7.57;3.15;;;26.50;50.20;;;;;;5037997;28;20064;-65
2022/10/11 10:08:49;;;;;;;8.35;3.05;;;26.40;49.60;;;;;;4998653;28;20044;-65
2022/10/11 10:11:17;;;;;;;7.40;2.88;;;26.30;50.00;;;;;;5048460;28;20044;-65
2022/10/11 10:13:49;;;;;;;8.90;2.85;;;26.20;49.60;;;;;;5048049;28;20044;-66
2022/10/11 10:16:23;;;;;;;;;;;26.20;50.10;;;;;;5048677;28;20200;-65
2022/10/11 10:19:00;;;;;;;5.10;2.35;;;26.00;50.40;;;;;;5048300;28;20351;-65
2022/10/11 10:21:28;;;;;;;3.88;2.38;;;26.00;50.10;;;;;;5048443;28;20129;-64
2022/10/11 10:23:58;;;;;;;4.25;2.95;;;25.90;50.10;;;;;;5048223;28;20703;-64
2022/10/11 10:26:25;;;;;;;8.45;2.38;;;25.90;50.10;;;;;;5032385;28;20183;-64
2022/10/11 10:29:03;;;;;;;3.72;2.30;;;25.90;48.70;;;;;;5048792;28;20577;-64
2022/10/11 10:31:48;;;;;;;2.63;1.88;;;25.80;50.20;;;;;;5038460;28;20032;-65
2022/10/11 10:34:27;;;;;;;6.20;3.13;;;25.70;50.40;;;;;;5029256;28;20489;-65
2022/10/11 10:37:14;;;;;;;8.40;1.55;;;25.80;50.10;;;;;;5030204;28;20053;-63
2022/10/11 10:39:53;;;;;;;2.67;1.70;;;25.60;46.30;;;;;;5011202;28;20046;-65
2022/10/11 10:42:20;;;;;;;5.95;2.00;;;25.70;50.60;;;;;;5029392;28;20033;-65
2022/10/11 10:44:51;;;;;;;3.05;2.03;;;25.60;51.10;;;;;;5029855;28;20541;-65
2022/10/11 10:47:18;;;;;;;2.70;1.55;;;25.60;50.10;;;;;;5028279;28;20041;-65
2022/10/11 10:50:05;;;;;;;3.22;1.90;;;25.50;51.40;;;;;;5029755;28;20410;-64
2022/10/11 10:52:53;;;;;;;3.38;1.98;;;25.50;51.60;;;;;;5031247;28;20449;-65
2022/10/11 10:55:46;;;;;;;3.13;1.85;;;25.50;51.70;;;;;;5030018;28;20033;-66
2022/10/11 10:58:50;;;;;;;2.77;1.90;;;25.50;51.40;;;;;;5014419;28;20041;-66
2022/10/11 11:01:27;;;;;;;2.58;1.58;;;25.40;51.80;;;;;;4972634;28;20435;-67
2022/10/11 11:04:14;;;;;;;2.65;1.90;;;25.40;52.10;;;;;;4973002;28;20077;-67
2022/10/11 11:06:45;;;;;;;2.65;1.67;;;25.40;52.60;;;;;;4972913;28;20062;-65
2022/10/11 11:09:24;;;;;;;4.13;1.70;;;25.40;51.60;;;;;;4972674;28;20070;-66
2022/10/11 11:12:02;;;;;;;2.78;1.50;;;25.40;52.90;;;;;;4940163;28;20046;-65
2022/10/11 11:14:59;;;;;;;4.38;1.98;;;25.30;52.50;;;;;;4972588;28;20047;-66
2022/10/11 11:17:46;;;;;;;3.58;1.95;;;25.40;52.30;;;;;;4972610;28;20110;-67
2022/10/11 11:20:38;;;;;;;3.15;1.60;;;25.30;52.20;;;;;;4973077;28;20074;-65
2022/10/11 11:23:34;;;;;;;2.45;1.65;;;25.30;52.30;;;;;;4972420;28;20412;-66
2022/10/11 11:26:09;;;;;;;2.15;1.45;;;25.30;52.40;;;;;;4978227;28;20077;-66
2022/10/11 11:28:55;;;;;;;2.65;1.60;;;25.30;51.90;;;;;;4990309;28;20443;-65
2022/10/11 11:31:21;;;;;;;4.93;1.67;;;25.30;52.50;;;;;;4992685;28;20125;-68
2022/10/11 11:34:03;;;;;;;2.72;1.75;;;25.20;52.50;;;;;;4975089;28;20126;-64
2022/10/11 11:36:48;;;;;;;2.45;1.83;;;25.20;48.60;;;;;;5005153;28;20378;-68
2022/10/11 11:39:23;;;;;;;1.05;0.90;;;25.20;46.30;;;;;;5034049;28;20041;-67
2022/10/11 11:41:52;;;;;;;4.95;2.05;;;25.30;46.20;;;;;;5033978;28;20021;-67
2022/10/11 11:44:27;;;;;;;0.93;0.93;;;25.20;44.00;;;;;;5014204;28;20128;-70
2022/10/11 11:47:01;;;;;;;1.50;1.17;;;25.30;52.90;;;;;;5032261;28;20061;-72
2022/10/11 11:49:41;;;;;;;8.70;2.20;;;25.40;53.70;;;;;;5032143;28;20021;-71
2022/10/11 11:52:46;;;;;;;2.88;1.75;;;25.30;54.10;;;;;;5032423;28;20670;-71
2022/10/11 11:55:22;;;;;;;3.28;1.33;;;25.40;53.90;;;;;;4955275;28;20031;-72
2022/10/11 11:57:51;;;;;;;2.53;1.58;;;25.30;53.40;;;;;;4954039;28;20047;-71
2022/10/11 12:00:26;;;;;;;4.03;1.77;;;25.30;53.70;;;;;;4952147;28;20531;-70
2022/10/11 12:02:59;;;;;;;9.00;2.10;;;25.20;52.50;;;;;;4951009;28;20070;-68
2022/10/11 12:05:33;;;;;;;4.10;2.10;;;25.30;52.60;;;;;;4934929;29;20114;-73
2022/10/11 12:08:02;;;;;;;6.88;2.13;;;25.10;52.40;;;;;;4932005;29;20039;-71
2022/10/11 12:10:58;;;;;;;3.45;2.15;;;25.30;53.00;;;;;;4933005;29;20040;-72
2022/10/11 12:13:36;;;;;;;2.28;1.58;;;25.20;54.00;;;;;;4932711;29;20573;-68
2022/10/11 12:16:14;;;;;;;8.68;2.13;;;25.20;54.10;;;;;;4932587;29;20453;-71
2022/10/11 12:18:50;;;;;;;4.03;1.63;;;25.20;53.70;;;;;;4932443;29;20052;-72
2022/10/11 12:21:30;;;;;;;2.92;1.75;;;25.10;53.10;;;;;;4916402;29;20062;-73
2022/10/11 12:23:59;;;;;;;4.32;1.90;;;25.10;53.30;;;;;;4950702;28;20039;-72
2022/10/11 12:26:28;;;;;;;4.00;2.10;;;25.20;53.10;;;;;;4960339;28;20480;-73
2022/10/11 12:29:21;;;;;;;4.03;1.70;;;25.20;53.10;;;;;;4940756;28;20047;-71
2022/10/11 12:32:09;;;;;;;3.08;2.20;;;25.30;52.50;;;;;;4977519;28;20438;-73
2022/10/11 12:34:41;;;;;;;4.25;2.17;;;25.20;53.00;;;;;;5017000;28;20064;-73
2022/10/11 12:37:19;;;;;;;4.28;2.90;;;25.10;53.00;;;;;;5031868;28;20443;-74
2022/10/11 12:39:52;;;;;;;2.67;1.95;;;25.20;52.90;;;;;;5032053;28;20061;-72
2022/10/11 12:42:20;;;;;;;;;;;25.10;52.90;;;;;;5032624;28;20120;-73
2022/10/11 12:45:27;;;;;;;3.00;1.90;;;25.20;53.00;;;;;;5030630;28;19917;-70
2022/10/11 12:48:30;;;;;;;3.05;2.15;;;25.10;52.40;;;;;;5031682;28;20463;-67
2022/10/11 12:51:32;;;;;;;5.85;2.38;;;25.20;52.80;;;;;;5031677;28;20395;-69
2022/10/11 12:54:37;;;;;;;5.15;2.42;;;25.10;52.10;;;;;;5031762;28;20120;-70
2022/10/11 12:57:31;;;;;;;3.70;2.10;;;25.10;52.40;;;;;;4942362;29;20493;-69
2022/10/11 13:00:17;;;;;;;7.10;2.17;;;25.10;52.60;;;;;;4950861;29;20380;-67
2022/10/11 13:02:43;;;;;;;5.38;2.00;;;25.00;52.50;;;;;;4950952;29;20775;-70
2022/10/11 13:05:26;;;;;;;4.13;2.03;;;25.10;52.30;;;;;;4934541;29;20055;-70
2022/10/11 13:07:55;;;;;;;5.88;2.58;;;25.00;52.10;;;;;;4950605;29;20487;-69
2022/10/11 13:10:40;;;;;;;10.38;2.67;;;25.00;52.10;;;;;;4934533;29;20051;-69